Terminal Aerodrome Forecast
Issued by NWS

Home | Current Version | Previous Version | Text Only | Print | Product List | Glossary On
Versions: 1 2 3 4 5 6 7 8 9 10 11 12 13 14
000
FTUS45 KPIH 041733
TAFSUN
TAF
KSUN 041733Z 0418/0518 31009KT P6SM SCT070 BKN130
     FM041900 15007KT P6SM -SHRA VCTS SCT050 BKN070CB OVC090
     FM050300 30010KT P6SM VCSH SCT070 BKN120=

USA.gov is the U.S. government's official web portal to all federal, state and local government web resources and services.